sensor_id;sensor_type;location;lat;lon;timestamp;pressure;altitude;pressure_sealevel;temperature;humidity
54876;BME280;40764;48.472;8.166;2023-03-01T00:05:52;98859.84;;;-1.38;78.06
54876;BME280;40764;48.472;8.166;2023-03-01T00:11:52;98858.44;;;-1.21;77.97
54876;BME280;40764;48.472;8.166;2023-03-01T00:17:53;98857.41;;;-1.20;77.34
54876;BME280;40764;48.472;8.166;2023-03-01T00:23:54;98872.47;;;-1.26;77.94
54876;BME280;40764;48.472;8.166;2023-03-01T00:29:54;98866.69;;;-1.29;77.59
54876;BME280;40764;48.472;8.166;2023-03-01T00:35:58;98867.69;;;-1.43;78.24
54876;BME280;40764;48.472;8.166;2023-03-01T00:41:58;98864.59;;;-1.34;78.30
54876;BME280;40764;48.472;8.166;2023-03-01T00:47:59;98848.88;;;-1.50;78.60
54876;BME280;40764;48.472;8.166;2023-03-01T00:54:01;98851.78;;;-1.45;78.66
54876;BME280;40764;48.472;8.166;2023-03-01T01:00:04;98859.59;;;-1.50;78.35
54876;BME280;40764;48.472;8.166;2023-03-01T01:06:05;98846.16;;;-1.70;78.94
54876;BME280;40764;48.472;8.166;2023-03-01T01:12:09;98845.56;;;-1.52;78.85
54876;BME280;40764;48.472;8.166;2023-03-01T01:18:09;98837.28;;;-1.64;78.85
54876;BME280;40764;48.472;8.166;2023-03-01T01:24:10;98834.44;;;-1.56;78.88
54876;BME280;40764;48.472;8.166;2023-03-01T01:30:11;98825.75;;;-1.58;79.53
54876;BME280;40764;48.472;8.166;2023-03-01T01:36:12;98823.06;;;-1.64;79.01
54876;BME280;40764;48.472;8.166;2023-03-01T01:42:17;98813.97;;;-1.70;79.89
54876;BME280;40764;48.472;8.166;2023-03-01T01:48:20;98794.19;;;-1.62;78.82
54876;BME280;40764;48.472;8.166;2023-03-01T01:54:26;98803.63;;;-1.79;79.89
54876;BME280;40764;48.472;8.166;2023-03-01T02:00:29;98805.25;;;-1.85;80.32
54876;BME280;40764;48.472;8.166;2023-03-01T02:12:31;98789.81;;;-1.76;79.53
54876;BME280;40764;48.472;8.166;2023-03-01T02:18:31;98790.34;;;-2.07;80.58
54876;BME280;40764;48.472;8.166;2023-03-01T02:31:04;98775.16;;;-1.87;80.24
54876;BME280;40764;48.472;8.166;2023-03-01T02:37:25;98766.88;;;-1.99;80.11
54876;BME280;40764;48.472;8.166;2023-03-01T02:43:29;98766.50;;;-1.89;80.71
54876;BME280;40764;48.472;8.166;2023-03-01T02:49:34;98763.81;;;-1.96;81.30
54876;BME280;40764;48.472;8.166;2023-03-01T02:55:34;98750.75;;;-2.05;81.03
54876;BME280;40764;48.472;8.166;2023-03-01T03:01:35;98742.16;;;-1.94;81.13
54876;BME280;40764;48.472;8.166;2023-03-01T03:07:40;98734.91;;;-2.07;81.15
54876;BME280;40764;48.472;8.166;2023-03-01T03:13:41;98727.25;;;-2.10;80.81
54876;BME280;40764;48.472;8.166;2023-03-01T03:19:48;98719.19;;;-2.23;81.46
54876;BME280;40764;48.472;8.166;2023-03-01T03:25:49;98722.84;;;-2.37;82.26
54876;BME280;40764;48.472;8.166;2023-03-01T03:31:49;98723.66;;;-2.37;82.88
54876;BME280;40764;48.472;8.166;2023-03-01T03:37:51;98710.16;;;-2.15;81.91
54876;BME280;40764;48.472;8.166;2023-03-01T03:44:03;98717.75;;;-2.26;82.88
54876;BME280;40764;48.472;8.166;2023-03-01T03:50:04;98709.91;;;-2.27;82.86
54876;BME280;40764;48.472;8.166;2023-03-01T03:56:05;98708.31;;;-2.08;82.18
54876;BME280;40764;48.472;8.166;2023-03-01T04:02:05;98698.66;;;-1.96;81.64
54876;BME280;40764;48.472;8.166;2023-03-01T04:08:09;98691.47;;;-1.82;81.01
54876;BME280;40764;48.472;8.166;2023-03-01T04:14:09;98689.97;;;-2.05;81.75
54876;BME280;40764;48.472;8.166;2023-03-01T04:20:12;98683.56;;;-2.10;82.32
54876;BME280;40764;48.472;8.166;2023-03-01T04:26:12;98679.09;;;-1.90;81.61
54876;BME280;40764;48.472;8.166;2023-03-01T04:32:12;98671.28;;;-1.72;81.87
54876;BME280;40764;48.472;8.166;2023-03-01T04:38:19;98666.13;;;-1.67;81.45
54876;BME280;40764;48.472;8.166;2023-03-01T04:44:19;98667.75;;;-1.46;80.64
54876;BME280;40764;48.472;8.166;2023-03-01T04:50:20;98663.44;;;-1.60;81.21
54876;BME280;40764;48.472;8.166;2023-03-01T04:56:21;98668.38;;;-1.24;81.02
54876;BME280;40764;48.472;8.166;2023-03-01T05:02:23;98659.91;;;-1.14;80.61
54876;BME280;40764;48.472;8.166;2023-03-01T05:08:23;98669.63;;;-1.33;81.47
54876;BME280;40764;48.472;8.166;2023-03-01T05:14:23;98654.56;;;-1.14;80.27
54876;BME280;40764;48.472;8.166;2023-03-01T05:20:25;98658.25;;;-1.15;80.36
54876;BME280;40764;48.472;8.166;2023-03-01T05:26:25;98638.25;;;-1.33;81.69
54876;BME280;40764;48.472;8.166;2023-03-01T05:32:28;98651.22;;;-1.10;81.04
54876;BME280;40764;48.472;8.166;2023-03-01T05:38:32;98645.03;;;-1.10;81.46
54876;BME280;40764;48.472;8.166;2023-03-01T05:44:32;98651.44;;;-1.11;81.08
54876;BME280;40764;48.472;8.166;2023-03-01T05:50:38;98646.63;;;-0.89;80.95
54876;BME280;40764;48.472;8.166;2023-03-01T05:56:39;98649.91;;;-0.74;80.57
54876;BME280;40764;48.472;8.166;2023-03-01T06:02:40;98650.31;;;-0.33;78.94
54876;BME280;40764;48.472;8.166;2023-03-01T06:08:40;98652.78;;;-0.24;79.05
54876;BME280;40764;48.472;8.166;2023-03-01T06:14:40;98656.09;;;0.09;77.49
54876;BME280;40764;48.472;8.166;2023-03-01T06:20:41;98646.28;;;0.46;76.54
54876;BME280;40764;48.472;8.166;2023-03-01T06:26:41;98661.63;;;0.46;75.87
54876;BME280;40764;48.472;8.166;2023-03-01T06:32:41;98655.19;;;0.72;75.42
54876;BME280;40764;48.472;8.166;2023-03-01T06:38:42;98640.34;;;0.87;74.79
54876;BME280;40764;48.472;8.166;2023-03-01T06:44:44;98634.22;;;1.35;72.56
54876;BME280;40764;48.472;8.166;2023-03-01T06:50:44;98636.31;;;1.33;72.59
54876;BME280;40764;48.472;8.166;2023-03-01T06:56:46;98636.69;;;1.37;72.58
54876;BME280;40764;48.472;8.166;2023-03-01T07:02:47;98624.75;;;1.63;71.00
54876;BME280;40764;48.472;8.166;2023-03-01T07:08:47;98630.06;;;1.69;69.72
54876;BME280;40764;48.472;8.166;2023-03-01T07:14:47;98615.72;;;1.87;68.69
54876;BME280;40764;48.472;8.166;2023-03-01T07:20:48;98616.50;;;2.06;68.71
54876;BME280;40764;48.472;8.166;2023-03-01T07:26:49;98608.47;;;2.41;66.93
54876;BME280;40764;48.472;8.166;2023-03-01T07:32:50;98594.34;;;2.15;67.62
54876;BME280;40764;48.472;8.166;2023-03-01T07:38:50;98608.59;;;2.46;66.96
54876;BME280;40764;48.472;8.166;2023-03-01T07:44:51;98610.00;;;2.37;66.62
54876;BME280;40764;48.472;8.166;2023-03-01T07:50:51;98595.69;;;2.36;65.84
54876;BME280;40764;48.472;8.166;2023-03-01T07:56:51;98592.03;;;2.42;65.11
54876;BME280;40764;48.472;8.166;2023-03-01T08:02:52;98583.03;;;2.60;64.61
54876;BME280;40764;48.472;8.166;2023-03-01T08:08:53;98588.19;;;2.62;64.69
54876;BME280;40764;48.472;8.166;2023-03-01T08:14:55;98570.34;;;2.61;64.79
54876;BME280;40764;48.472;8.166;2023-03-01T08:21:10;98571.50;;;2.76;64.20
54876;BME280;40764;48.472;8.166;2023-03-01T08:27:11;98583.47;;;2.92;64.63
54876;BME280;40764;48.472;8.166;2023-03-01T08:33:12;98580.72;;;3.16;63.03
54876;BME280;40764;48.472;8.166;2023-03-01T08:39:15;98568.28;;;3.55;61.93
54876;BME280;40764;48.472;8.166;2023-03-01T08:45:16;98553.63;;;3.51;61.94
54876;BME280;40764;48.472;8.166;2023-03-01T08:51:19;98562.34;;;3.69;60.80
54876;BME280;40764;48.472;8.166;2023-03-01T08:57:19;98556.72;;;3.88;61.06
54876;BME280;40764;48.472;8.166;2023-03-01T09:03:20;98551.66;;;3.91;60.17
54876;BME280;40764;48.472;8.166;2023-03-01T09:09:20;98547.97;;;4.31;59.08
54876;BME280;40764;48.472;8.166;2023-03-01T09:15:21;98537.16;;;4.31;57.71
54876;BME280;40764;48.472;8.166;2023-03-01T09:21:22;98536.44;;;4.35;57.59
54876;BME280;40764;48.472;8.166;2023-03-01T09:27:23;98523.44;;;4.54;56.92
54876;BME280;40764;48.472;8.166;2023-03-01T09:33:25;98521.47;;;4.50;56.63
54876;BME280;40764;48.472;8.166;2023-03-01T09:39:25;98514.00;;;4.57;57.13
54876;BME280;40764;48.472;8.166;2023-03-01T09:45:32;98502.06;;;4.75;57.07
54876;BME280;40764;48.472;8.166;2023-03-01T09:51:35;98499.06;;;4.93;56.99
54876;BME280;40764;48.472;8.166;2023-03-01T09:57:51;98500.31;;;5.07;55.58
54876;BME280;40764;48.472;8.166;2023-03-01T10:10:36;98495.16;;;5.54;54.85
54876;BME280;40764;48.472;8.166;2023-03-01T10:16:50;98501.09;;;5.78;55.17
54876;BME280;40764;48.472;8.166;2023-03-01T10:22:54;98500.78;;;5.75;55.09
54876;BME280;40764;48.472;8.166;2023-03-01T10:29:12;98493.41;;;5.70;54.69
54876;BME280;40764;48.472;8.166;2023-03-01T10:35:29;98491.75;;;5.91;54.68
54876;BME280;40764;48.472;8.166;2023-03-01T10:41:32;98477.84;;;5.87;53.93
54876;BME280;40764;48.472;8.166;2023-03-01T10:47:33;98475.81;;;6.00;53.76
54876;BME280;40764;48.472;8.166;2023-03-01T10:59:40;98461.78;;;6.50;52.79
54876;BME280;40764;48.472;8.166;2023-03-01T11:05:58;98453.03;;;6.38;52.89
54876;BME280;40764;48.472;8.166;2023-03-01T11:12:00;98444.69;;;6.55;52.83
54876;BME280;40764;48.472;8.166;2023-03-01T11:18:00;98432.91;;;6.86;50.24
54876;BME280;40764;48.472;8.166;2023-03-01T11:24:04;98416.34;;;6.93;51.85
54876;BME280;40764;48.472;8.166;2023-03-01T11:36:41;98402.00;;;7.12;50.67
54876;BME280;40764;48.472;8.166;2023-03-01T11:42:52;98395.06;;;6.69;53.15
54876;BME280;40764;48.472;8.166;2023-03-01T11:55:22;98379.97;;;7.09;51.97
54876;BME280;40764;48.472;8.166;2023-03-01T12:08:19;98370.19;;;7.03;51.96
54876;BME280;40764;48.472;8.166;2023-03-01T12:14:52;98354.47;;;7.30;51.79
54876;BME280;40764;48.472;8.166;2023-03-01T13:10:57;98287.78;;;7.73;50.08
54876;BME280;40764;48.472;8.166;2023-03-01T13:16:59;98285.84;;;7.99;50.22
54876;BME280;40764;48.472;8.166;2023-03-01T13:23:07;98273.81;;;8.21;49.57
54876;BME280;40764;48.472;8.166;2023-03-01T13:29:25;98264.06;;;8.10;48.87
54876;BME280;40764;48.472;8.166;2023-03-01T13:35:41;98264.50;;;8.42;48.45
54876;BME280;40764;48.472;8.166;2023-03-01T13:47:43;98251.31;;;8.59;48.64
54876;BME280;40764;48.472;8.166;2023-03-01T13:53:47;98249.63;;;8.68;47.60
54876;BME280;40764;48.472;8.166;2023-03-01T13:59:47;98251.19;;;8.80;47.98
54876;BME280;40764;48.472;8.166;2023-03-01T14:06:02;98247.44;;;8.65;48.82
54876;BME280;40764;48.472;8.166;2023-03-01T14:18:42;98241.41;;;9.13;47.21
54876;BME280;40764;48.472;8.166;2023-03-01T14:25:00;98242.28;;;8.64;46.18
54876;BME280;40764;48.472;8.166;2023-03-01T14:31:01;98241.53;;;8.53;46.45
54876;BME280;40764;48.472;8.166;2023-03-01T14:37:29;98246.13;;;8.58;46.72
54876;BME280;40764;48.472;8.166;2023-03-01T14:43:32;98242.72;;;9.20;46.41
54876;BME280;40764;48.472;8.166;2023-03-01T14:49:32;98247.38;;;9.49;46.04
54876;BME280;40764;48.472;8.166;2023-03-01T14:55:38;98244.72;;;9.10;45.82
54876;BME280;40764;48.472;8.166;2023-03-01T15:01:41;98256.75;;;9.96;45.24
54876;BME280;40764;48.472;8.166;2023-03-01T15:07:43;98255.09;;;9.71;45.17
54876;BME280;40764;48.472;8.166;2023-03-01T15:13:48;98254.03;;;10.19;44.54
54876;BME280;40764;48.472;8.166;2023-03-01T15:19:49;98256.78;;;9.67;45.01
54876;BME280;40764;48.472;8.166;2023-03-01T15:25:52;98266.13;;;9.60;44.47
54876;BME280;40764;48.472;8.166;2023-03-01T15:32:04;98263.28;;;9.71;44.91
54876;BME280;40764;48.472;8.166;2023-03-01T15:38:24;98262.63;;;9.79;43.87
54876;BME280;40764;48.472;8.166;2023-03-01T15:44:28;98256.59;;;9.58;44.77
54876;BME280;40764;48.472;8.166;2023-03-01T15:50:32;98264.56;;;9.15;45.14
54876;BME280;40764;48.472;8.166;2023-03-01T15:56:33;98252.22;;;9.28;44.63
54876;BME280;40764;48.472;8.166;2023-03-01T16:02:33;98245.28;;;9.07;45.62
54876;BME280;40764;48.472;8.166;2023-03-01T16:08:34;98257.47;;;8.80;45.09
54876;BME280;40764;48.472;8.166;2023-03-01T16:14:34;98254.34;;;8.53;46.56
54876;BME280;40764;48.472;8.166;2023-03-01T16:20:34;98265.72;;;7.80;48.76
54876;BME280;40764;48.472;8.166;2023-03-01T16:26:36;98271.78;;;7.31;49.66
54876;BME280;40764;48.472;8.166;2023-03-01T16:32:41;98286.16;;;6.91;50.53
54876;BME280;40764;48.472;8.166;2023-03-01T16:38:42;98284.19;;;6.61;51.62
54876;BME280;40764;48.472;8.166;2023-03-01T16:44:42;98287.44;;;6.53;51.83
54876;BME280;40764;48.472;8.166;2023-03-01T16:50:43;98300.38;;;6.26;52.29
54876;BME280;40764;48.472;8.166;2023-03-01T16:56:43;98299.78;;;6.13;52.69
54876;BME280;40764;48.472;8.166;2023-03-01T17:02:44;98305.94;;;5.99;52.89
54876;BME280;40764;48.472;8.166;2023-03-01T17:08:44;98309.53;;;5.72;53.92
54876;BME280;40764;48.472;8.166;2023-03-01T17:14:45;98314.47;;;5.43;55.07
54876;BME280;40764;48.472;8.166;2023-03-01T17:20:45;98325.97;;;5.55;54.63
54876;BME280;40764;48.472;8.166;2023-03-01T17:26:45;98327.53;;;5.19;55.86
54876;BME280;40764;48.472;8.166;2023-03-01T17:32:46;98328.03;;;5.11;56.08
54876;BME280;40764;48.472;8.166;2023-03-01T17:38:46;98345.47;;;4.93;56.76
54876;BME280;40764;48.472;8.166;2023-03-01T17:44:48;98343.19;;;4.85;56.74
54876;BME280;40764;48.472;8.166;2023-03-01T17:50:48;98342.22;;;4.70;57.03
54876;BME280;40764;48.472;8.166;2023-03-01T17:56:49;98347.34;;;4.66;58.05
54876;BME280;40764;48.472;8.166;2023-03-01T18:02:49;98346.72;;;4.37;59.22
54876;BME280;40764;48.472;8.166;2023-03-01T18:08:50;98347.69;;;4.31;58.85
54876;BME280;40764;48.472;8.166;2023-03-01T18:14:51;98350.84;;;4.23;59.77
54876;BME280;40764;48.472;8.166;2023-03-01T18:20:58;98345.31;;;4.13;59.74
54876;BME280;40764;48.472;8.166;2023-03-01T18:26:59;98345.28;;;3.91;60.99
54876;BME280;40764;48.472;8.166;2023-03-01T18:32:59;98345.63;;;3.61;61.71
54876;BME280;40764;48.472;8.166;2023-03-01T18:39:04;98350.78;;;3.79;61.25
54876;BME280;40764;48.472;8.166;2023-03-01T18:45:05;98350.91;;;3.51;62.29
54876;BME280;40764;48.472;8.166;2023-03-01T18:51:09;98330.06;;;3.18;64.24
54876;BME280;40764;48.472;8.166;2023-03-01T18:57:09;98328.28;;;3.40;62.85
54876;BME280;40764;48.472;8.166;2023-03-01T19:03:10;98320.81;;;3.64;62.06
54876;BME280;40764;48.472;8.166;2023-03-01T19:09:10;98324.34;;;3.31;63.37
54876;BME280;40764;48.472;8.166;2023-03-01T19:15:11;98319.50;;;3.16;64.16
54876;BME280;40764;48.472;8.166;2023-03-01T19:21:11;98318.59;;;2.94;64.89
54876;BME280;40764;48.472;8.166;2023-03-01T19:27:12;98319.16;;;3.13;64.20
54876;BME280;40764;48.472;8.166;2023-03-01T19:33:12;98313.34;;;3.04;65.29
54876;BME280;40764;48.472;8.166;2023-03-01T19:39:13;98315.56;;;3.07;65.73
54876;BME280;40764;48.472;8.166;2023-03-01T19:45:13;98313.28;;;3.16;65.03
54876;BME280;40764;48.472;8.166;2023-03-01T19:51:14;98322.66;;;2.79;65.86
54876;BME280;40764;48.472;8.166;2023-03-01T19:57:14;98324.09;;;2.42;68.02
54876;BME280;40764;48.472;8.166;2023-03-01T20:03:14;98327.03;;;2.40;67.52
54876;BME280;40764;48.472;8.166;2023-03-01T20:09:15;98318.75;;;2.59;67.49
54876;BME280;40764;48.472;8.166;2023-03-01T20:15:16;98317.69;;;2.60;66.91
54876;BME280;40764;48.472;8.166;2023-03-01T20:21:16;98314.69;;;2.44;67.81
54876;BME280;40764;48.472;8.166;2023-03-01T20:27:18;98306.53;;;2.28;68.36
54876;BME280;40764;48.472;8.166;2023-03-01T20:33:18;98296.06;;;2.03;69.11
54876;BME280;40764;48.472;8.166;2023-03-01T20:39:18;98298.19;;;2.29;68.83
54876;BME280;40764;48.472;8.166;2023-03-01T20:45:20;98308.50;;;1.92;69.28
54876;BME280;40764;48.472;8.166;2023-03-01T20:51:20;98309.66;;;1.96;69.50
54876;BME280;40764;48.472;8.166;2023-03-01T20:57:21;98302.44;;;1.50;71.55
54876;BME280;40764;48.472;8.166;2023-03-01T21:03:21;98306.19;;;1.49;72.33
54876;BME280;40764;48.472;8.166;2023-03-01T21:09:21;98298.78;;;1.68;71.59
54876;BME280;40764;48.472;8.166;2023-03-01T21:15:22;98302.19;;;1.63;71.46
54876;BME280;40764;48.472;8.166;2023-03-01T21:21:23;98300.56;;;1.27;73.16
54876;BME280;40764;48.472;8.166;2023-03-01T21:27:23;98298.34;;;1.47;73.66
54876;BME280;40764;48.472;8.166;2023-03-01T21:33:23;98294.25;;;1.45;73.79
54876;BME280;40764;48.472;8.166;2023-03-01T21:39:24;98278.31;;;1.20;74.55
54876;BME280;40764;48.472;8.166;2023-03-01T21:45:28;98264.25;;;1.06;75.53
54876;BME280;40764;48.472;8.166;2023-03-01T21:51:28;98255.81;;;0.91;75.46
54876;BME280;40764;48.472;8.166;2023-03-01T21:57:30;98241.41;;;0.97;75.05
54876;BME280;40764;48.472;8.166;2023-03-01T22:03:30;98236.34;;;0.77;76.28
54876;BME280;40764;48.472;8.166;2023-03-01T22:09:31;98237.94;;;0.55;76.84
54876;BME280;40764;48.472;8.166;2023-03-01T22:15:34;98237.69;;;0.56;77.17
54876;BME280;40764;48.472;8.166;2023-03-01T22:21:37;98246.97;;;0.60;77.13
54876;BME280;40764;48.472;8.166;2023-03-01T22:27:38;98239.56;;;0.56;77.45
54876;BME280;40764;48.472;8.166;2023-03-01T22:33:38;98234.97;;;0.45;77.64
54876;BME280;40764;48.472;8.166;2023-03-01T22:39:39;98238.31;;;0.58;77.77
54876;BME280;40764;48.472;8.166;2023-03-01T22:45:39;98230.31;;;0.40;77.70
54876;BME280;40764;48.472;8.166;2023-03-01T22:51:40;98227.16;;;0.13;79.70
54876;BME280;40764;48.472;8.166;2023-03-01T22:57:41;98219.19;;;0.07;79.95
54876;BME280;40764;48.472;8.166;2023-03-01T23:03:41;98220.75;;;0.26;79.00
54876;BME280;40764;48.472;8.166;2023-03-01T23:09:42;98224.56;;;0.37;78.86
54876;BME280;40764;48.472;8.166;2023-03-01T23:15:42;98222.69;;;0.07;79.03
54876;BME280;40764;48.472;8.166;2023-03-01T23:21:44;98213.94;;;0.12;79.73
54876;BME280;40764;48.472;8.166;2023-03-01T23:27:49;98210.19;;;0.01;79.83
54876;BME280;40764;48.472;8.166;2023-03-01T23:33:49;98211.59;;;0.04;80.38
54876;BME280;40764;48.472;8.166;2023-03-01T23:39:49;98196.34;;;0.27;80.01
54876;BME280;40764;48.472;8.166;2023-03-01T23:45:53;98193.63;;;-0.14;81.79
54876;BME280;40764;48.472;8.166;2023-03-01T23:51:53;98190.66;;;-0.24;82.33
54876;BME280;40764;48.472;8.166;2023-03-01T23:57:53;98194.41;;;0.05;81.48
